sensor_id;sensor_type;location;lat;lon;timestamp;temperature;humidity
53282;DHT22;39167;52.794;6.892;2022-08-19T00:01:49;16.40;99.90
53282;DHT22;39167;52.794;6.892;2022-08-19T00:04:18;16.40;99.90
53282;DHT22;39167;52.794;6.892;2022-08-19T00:06:46;16.40;99.90
53282;DHT22;39167;52.794;6.892;2022-08-19T00:09:14;16.30;99.90
53282;DHT22;39167;52.794;6.892;2022-08-19T00:11:41;16.30;99.90
53282;DHT22;39167;52.794;6.892;2022-08-19T00:14:08;16.30;99.90
53282;DHT22;39167;52.794;6.892;2022-08-19T00:16:36;16.20;99.90
53282;DHT22;39167;52.794;6.892;2022-08-19T00:19:03;16.30;99.90
53282;DHT22;39167;52.794;6.892;2022-08-19T00:21:28;16.20;99.90
53282;DHT22;39167;52.794;6.892;2022-08-19T00:23:55;16.20;99.90
53282;DHT22;39167;52.794;6.892;2022-08-19T00:26:24;16.20;99.90
53282;DHT22;39167;52.794;6.892;2022-08-19T00:28:50;16.10;99.90
53282;DHT22;39167;52.794;6.892;2022-08-19T00:31:16;16.10;99.90
53282;DHT22;39167;52.794;6.892;2022-08-19T00:33:43;16.10;99.90
53282;DHT22;39167;52.794;6.892;2022-08-19T00:36:09;16.10;99.90
53282;DHT22;39167;52.794;6.892;2022-08-19T00:38:37;16.00;99.90
53282;DHT22;39167;52.794;6.892;2022-08-19T00:41:04;16.00;99.90
53282;DHT22;39167;52.794;6.892;2022-08-19T00:43:30;16.00;99.90
53282;DHT22;39167;52.794;6.892;2022-08-19T00:45:56;16.00;99.90
53282;DHT22;39167;52.794;6.892;2022-08-19T00:48:22;15.90;99.90
53282;DHT22;39167;52.794;6.892;2022-08-19T00:50:49;15.90;99.90
53282;DHT22;39167;52.794;6.892;2022-08-19T00:53:20;15.90;99.90
53282;DHT22;39167;52.794;6.892;2022-08-19T00:55:48;15.90;99.90
53282;DHT22;39167;52.794;6.892;2022-08-19T00:58:17;16.00;99.90
53282;DHT22;39167;52.794;6.892;2022-08-19T01:00:45;15.90;99.90
53282;DHT22;39167;52.794;6.892;2022-08-19T01:03:14;15.90;99.90
53282;DHT22;39167;52.794;6.892;2022-08-19T01:05:42;15.90;99.90
53282;DHT22;39167;52.794;6.892;2022-08-19T01:08:09;15.90;99.90
53282;DHT22;39167;52.794;6.892;2022-08-19T01:10:50;15.90;99.90
53282;DHT22;39167;52.794;6.892;2022-08-19T01:13:20;15.90;99.90
53282;DHT22;39167;52.794;6.892;2022-08-19T01:15:50;15.90;99.90
53282;DHT22;39167;52.794;6.892;2022-08-19T01:18:19;15.80;99.90
53282;DHT22;39167;52.794;6.892;2022-08-19T01:20:46;15.80;99.90
53282;DHT22;39167;52.794;6.892;2022-08-19T01:23:13;15.80;99.90
53282;DHT22;39167;52.794;6.892;2022-08-19T01:25:46;15.80;99.90
53282;DHT22;39167;52.794;6.892;2022-08-19T01:28:22;15.80;99.90
53282;DHT22;39167;52.794;6.892;2022-08-19T01:30:48;15.80;99.90
53282;DHT22;39167;52.794;6.892;2022-08-19T01:33:14;15.80;99.90
53282;DHT22;39167;52.794;6.892;2022-08-19T01:35:40;15.80;99.90
53282;DHT22;39167;52.794;6.892;2022-08-19T01:38:18;15.80;99.90
53282;DHT22;39167;52.794;6.892;2022-08-19T01:40:44;15.80;99.90
53282;DHT22;39167;52.794;6.892;2022-08-19T01:43:10;15.80;99.90
53282;DHT22;39167;52.794;6.892;2022-08-19T01:45:36;15.80;99.90
53282;DHT22;39167;52.794;6.892;2022-08-19T01:48:08;15.70;99.90
53282;DHT22;39167;52.794;6.892;2022-08-19T01:50:35;15.70;99.90
53282;DHT22;39167;52.794;6.892;2022-08-19T01:53:02;15.70;99.90
53282;DHT22;39167;52.794;6.892;2022-08-19T01:55:29;15.70;99.90
53282;DHT22;39167;52.794;6.892;2022-08-19T01:57:58;15.70;99.90
53282;DHT22;39167;52.794;6.892;2022-08-19T02:00:26;15.70;99.90
53282;DHT22;39167;52.794;6.892;2022-08-19T02:02:53;15.70;99.90
53282;DHT22;39167;52.794;6.892;2022-08-19T02:05:19;15.70;99.90
53282;DHT22;39167;52.794;6.892;2022-08-19T02:07:47;15.70;99.90
53282;DHT22;39167;52.794;6.892;2022-08-19T02:10:16;15.60;99.90
53282;DHT22;39167;52.794;6.892;2022-08-19T02:12:43;15.70;99.90
53282;DHT22;39167;52.794;6.892;2022-08-19T02:15:09;15.60;99.90
53282;DHT22;39167;52.794;6.892;2022-08-19T02:17:35;15.60;99.90
53282;DHT22;39167;52.794;6.892;2022-08-19T02:20:00;15.60;99.90
53282;DHT22;39167;52.794;6.892;2022-08-19T02:22:26;15.60;99.90
53282;DHT22;39167;52.794;6.892;2022-08-19T02:24:53;15.50;99.90
53282;DHT22;39167;52.794;6.892;2022-08-19T02:27:20;15.50;99.90
53282;DHT22;39167;52.794;6.892;2022-08-19T02:29:46;15.50;99.90
53282;DHT22;39167;52.794;6.892;2022-08-19T02:32:13;15.50;99.90
53282;DHT22;39167;52.794;6.892;2022-08-19T02:34:39;15.40;99.90
53282;DHT22;39167;52.794;6.892;2022-08-19T02:37:05;15.40;99.90
53282;DHT22;39167;52.794;6.892;2022-08-19T02:39:30;15.40;99.90
53282;DHT22;39167;52.794;6.892;2022-08-19T02:41:56;15.40;99.90
53282;DHT22;39167;52.794;6.892;2022-08-19T02:44:23;15.30;99.90
53282;DHT22;39167;52.794;6.892;2022-08-19T02:46:49;15.40;99.90
53282;DHT22;39167;52.794;6.892;2022-08-19T02:49:15;15.30;99.90
53282;DHT22;39167;52.794;6.892;2022-08-19T02:51:43;15.30;99.90
53282;DHT22;39167;52.794;6.892;2022-08-19T02:54:10;15.40;99.90
53282;DHT22;39167;52.794;6.892;2022-08-19T02:56:38;15.30;99.90
53282;DHT22;39167;52.794;6.892;2022-08-19T02:59:05;15.30;99.90
53282;DHT22;39167;52.794;6.892;2022-08-19T03:01:35;15.30;99.90
53282;DHT22;39167;52.794;6.892;2022-08-19T03:04:04;15.30;99.90
53282;DHT22;39167;52.794;6.892;2022-08-19T03:06:30;15.30;99.90
53282;DHT22;39167;52.794;6.892;2022-08-19T03:08:57;15.30;99.90
53282;DHT22;39167;52.794;6.892;2022-08-19T03:11:28;15.30;99.90
53282;DHT22;39167;52.794;6.892;2022-08-19T03:13:55;15.30;99.90
53282;DHT22;39167;52.794;6.892;2022-08-19T03:16:22;15.20;99.90
53282;DHT22;39167;52.794;6.892;2022-08-19T03:18:49;15.20;99.90
53282;DHT22;39167;52.794;6.892;2022-08-19T03:21:17;15.20;99.90
53282;DHT22;39167;52.794;6.892;2022-08-19T03:23:43;15.20;99.90
53282;DHT22;39167;52.794;6.892;2022-08-19T03:26:09;15.20;99.90
53282;DHT22;39167;52.794;6.892;2022-08-19T03:28:35;15.10;99.90
53282;DHT22;39167;52.794;6.892;2022-08-19T03:31:08;15.10;99.90
53282;DHT22;39167;52.794;6.892;2022-08-19T03:33:34;15.10;99.90
53282;DHT22;39167;52.794;6.892;2022-08-19T03:36:06;15.10;99.90
53282;DHT22;39167;52.794;6.892;2022-08-19T03:38:38;15.10;99.90
53282;DHT22;39167;52.794;6.892;2022-08-19T03:41:16;15.10;99.90
53282;DHT22;39167;52.794;6.892;2022-08-19T03:43:44;15.00;99.90
53282;DHT22;39167;52.794;6.892;2022-08-19T03:46:14;15.00;99.90
53282;DHT22;39167;52.794;6.892;2022-08-19T03:48:42;14.90;99.90
53282;DHT22;39167;52.794;6.892;2022-08-19T03:51:17;14.90;99.90
53282;DHT22;39167;52.794;6.892;2022-08-19T03:53:43;14.90;99.90
53282;DHT22;39167;52.794;6.892;2022-08-19T03:56:09;14.80;99.90
53282;DHT22;39167;52.794;6.892;2022-08-19T03:58:36;14.80;99.90
53282;DHT22;39167;52.794;6.892;2022-08-19T04:01:10;14.80;99.90
53282;DHT22;39167;52.794;6.892;2022-08-19T04:03:38;14.70;99.90
53282;DHT22;39167;52.794;6.892;2022-08-19T04:06:19;14.70;99.90
53282;DHT22;39167;52.794;6.892;2022-08-19T04:08:49;14.70;99.90
53282;DHT22;39167;52.794;6.892;2022-08-19T04:11:23;14.60;99.90
53282;DHT22;39167;52.794;6.892;2022-08-19T04:13:51;14.70;99.90
53282;DHT22;39167;52.794;6.892;2022-08-19T04:16:23;14.60;99.90
53282;DHT22;39167;52.794;6.892;2022-08-19T04:18:50;14.60;99.90
53282;DHT22;39167;52.794;6.892;2022-08-19T04:21:24;14.60;99.90
53282;DHT22;39167;52.794;6.892;2022-08-19T04:23:52;14.50;99.90
53282;DHT22;39167;52.794;6.892;2022-08-19T04:26:24;14.50;99.90
53282;DHT22;39167;52.794;6.892;2022-08-19T04:28:50;14.50;99.90
53282;DHT22;39167;52.794;6.892;2022-08-19T04:31:27;14.40;99.90
53282;DHT22;39167;52.794;6.892;2022-08-19T04:33:54;14.40;99.90
53282;DHT22;39167;52.794;6.892;2022-08-19T04:36:28;14.40;99.90
53282;DHT22;39167;52.794;6.892;2022-08-19T04:38:56;14.30;99.90
53282;DHT22;39167;52.794;6.892;2022-08-19T04:41:23;14.30;99.90
53282;DHT22;39167;52.794;6.892;2022-08-19T04:44:07;14.30;99.90
53282;DHT22;39167;52.794;6.892;2022-08-19T04:46:33;14.30;99.90
53282;DHT22;39167;52.794;6.892;2022-08-19T04:48:59;14.30;99.90
53282;DHT22;39167;52.794;6.892;2022-08-19T04:51:25;14.30;99.90
53282;DHT22;39167;52.794;6.892;2022-08-19T04:53:52;14.30;99.90
53282;DHT22;39167;52.794;6.892;2022-08-19T04:56:19;14.30;99.90
53282;DHT22;39167;52.794;6.892;2022-08-19T04:58:48;14.30;99.90
53282;DHT22;39167;52.794;6.892;2022-08-19T05:01:21;14.30;99.90
53282;DHT22;39167;52.794;6.892;2022-08-19T05:03:47;14.40;99.90
53282;DHT22;39167;52.794;6.892;2022-08-19T05:06:15;14.40;99.90
53282;DHT22;39167;52.794;6.892;2022-08-19T05:08:42;14.40;99.90
53282;DHT22;39167;52.794;6.892;2022-08-19T05:11:18;14.40;99.90
53282;DHT22;39167;52.794;6.892;2022-08-19T05:13:46;14.50;99.90
53282;DHT22;39167;52.794;6.892;2022-08-19T05:16:13;14.40;99.90
53282;DHT22;39167;52.794;6.892;2022-08-19T05:18:40;14.40;99.90
53282;DHT22;39167;52.794;6.892;2022-08-19T05:21:25;14.50;99.90
53282;DHT22;39167;52.794;6.892;2022-08-19T05:24:11;14.40;99.90
53282;DHT22;39167;52.794;6.892;2022-08-19T05:26:45;14.40;99.90
53282;DHT22;39167;52.794;6.892;2022-08-19T05:29:13;14.40;99.90
53282;DHT22;39167;52.794;6.892;2022-08-19T05:31:39;14.50;99.90
53282;DHT22;39167;52.794;6.892;2022-08-19T05:34:06;14.40;99.90
53282;DHT22;39167;52.794;6.892;2022-08-19T05:36:37;14.40;99.90
53282;DHT22;39167;52.794;6.892;2022-08-19T05:39:09;14.50;99.90
53282;DHT22;39167;52.794;6.892;2022-08-19T05:41:37;14.50;99.90
53282;DHT22;39167;52.794;6.892;2022-08-19T05:44:06;14.50;99.90
53282;DHT22;39167;52.794;6.892;2022-08-19T05:46:37;14.40;99.90
53282;DHT22;39167;52.794;6.892;2022-08-19T05:49:05;14.50;99.90
53282;DHT22;39167;52.794;6.892;2022-08-19T05:51:32;14.50;99.90
53282;DHT22;39167;52.794;6.892;2022-08-19T05:53:59;14.50;99.90
53282;DHT22;39167;52.794;6.892;2022-08-19T05:56:25;14.50;99.90
53282;DHT22;39167;52.794;6.892;2022-08-19T05:58:51;14.60;99.90
53282;DHT22;39167;52.794;6.892;2022-08-19T06:01:20;14.50;99.90
53282;DHT22;39167;52.794;6.892;2022-08-19T06:03:46;14.50;99.90
53282;DHT22;39167;52.794;6.892;2022-08-19T06:06:14;14.50;99.90
53282;DHT22;39167;52.794;6.892;2022-08-19T06:08:41;14.60;99.90
53282;DHT22;39167;52.794;6.892;2022-08-19T06:11:21;14.70;99.90
53282;DHT22;39167;52.794;6.892;2022-08-19T06:13:49;14.70;99.90
53282;DHT22;39167;52.794;6.892;2022-08-19T06:16:21;14.80;99.90
53282;DHT22;39167;52.794;6.892;2022-08-19T06:18:56;14.90;99.90
53282;DHT22;39167;52.794;6.892;2022-08-19T06:21:25;15.00;99.90
53282;DHT22;39167;52.794;6.892;2022-08-19T06:23:52;15.20;99.90
53282;DHT22;39167;52.794;6.892;2022-08-19T06:26:20;15.20;99.90
53282;DHT22;39167;52.794;6.892;2022-08-19T06:28:47;15.30;99.90
53282;DHT22;39167;52.794;6.892;2022-08-19T06:31:23;15.50;99.90
53282;DHT22;39167;52.794;6.892;2022-08-19T06:33:49;15.60;99.90
53282;DHT22;39167;52.794;6.892;2022-08-19T06:36:24;15.70;99.90
53282;DHT22;39167;52.794;6.892;2022-08-19T06:38:57;15.90;99.90
53282;DHT22;39167;52.794;6.892;2022-08-19T06:41:25;16.00;99.90
53282;DHT22;39167;52.794;6.892;2022-08-19T06:43:51;16.10;99.90
53282;DHT22;39167;52.794;6.892;2022-08-19T06:46:17;16.20;99.90
53282;DHT22;39167;52.794;6.892;2022-08-19T06:48:45;16.30;99.90
53282;DHT22;39167;52.794;6.892;2022-08-19T06:51:14;16.40;99.90
53282;DHT22;39167;52.794;6.892;2022-08-19T06:53:41;16.50;99.90
53282;DHT22;39167;52.794;6.892;2022-08-19T06:56:17;16.50;99.90
53282;DHT22;39167;52.794;6.892;2022-08-19T06:58:44;16.60;99.90
53282;DHT22;39167;52.794;6.892;2022-08-19T07:01:09;16.70;99.90
53282;DHT22;39167;52.794;6.892;2022-08-19T07:03:36;16.80;99.90
53282;DHT22;39167;52.794;6.892;2022-08-19T07:06:08;16.90;99.90
53282;DHT22;39167;52.794;6.892;2022-08-19T07:08:35;17.00;99.90
53282;DHT22;39167;52.794;6.892;2022-08-19T07:11:07;17.10;99.90
53282;DHT22;39167;52.794;6.892;2022-08-19T07:13:34;17.20;99.90
53282;DHT22;39167;52.794;6.892;2022-08-19T07:16:06;17.30;99.90
53282;DHT22;39167;52.794;6.892;2022-08-19T07:18:33;17.30;99.90
53282;DHT22;39167;52.794;6.892;2022-08-19T07:21:18;17.40;99.90
53282;DHT22;39167;52.794;6.892;2022-08-19T07:23:45;17.60;99.90
53282;DHT22;39167;52.794;6.892;2022-08-19T07:26:15;17.60;99.90
53282;DHT22;39167;52.794;6.892;2022-08-19T07:28:42;17.70;99.90
53282;DHT22;39167;52.794;6.892;2022-08-19T07:31:11;17.80;99.90
53282;DHT22;39167;52.794;6.892;2022-08-19T07:33:37;17.90;99.90
53282;DHT22;39167;52.794;6.892;2022-08-19T07:36:05;17.90;99.90
53282;DHT22;39167;52.794;6.892;2022-08-19T07:38:32;18.00;99.90
53282;DHT22;39167;52.794;6.892;2022-08-19T07:40:58;18.00;99.90
53282;DHT22;39167;52.794;6.892;2022-08-19T07:43:24;18.10;99.90
53282;DHT22;39167;52.794;6.892;2022-08-19T07:45:52;18.20;99.90
53282;DHT22;39167;52.794;6.892;2022-08-19T07:48:22;18.30;99.90
53282;DHT22;39167;52.794;6.892;2022-08-19T07:50:51;18.40;99.90
53282;DHT22;39167;52.794;6.892;2022-08-19T07:53:17;18.40;99.90
53282;DHT22;39167;52.794;6.892;2022-08-19T07:55:43;18.50;99.90
53282;DHT22;39167;52.794;6.892;2022-08-19T07:58:16;18.60;99.90
53282;DHT22;39167;52.794;6.892;2022-08-19T08:00:43;18.70;99.90
53282;DHT22;39167;52.794;6.892;2022-08-19T08:03:13;18.80;99.90
53282;DHT22;39167;52.794;6.892;2022-08-19T08:05:40;18.90;99.90
53282;DHT22;39167;52.794;6.892;2022-08-19T08:08:24;19.00;99.90
53282;DHT22;39167;52.794;6.892;2022-08-19T08:11:09;19.10;99.90
53282;DHT22;39167;52.794;6.892;2022-08-19T08:13:36;19.30;99.90
53282;DHT22;39167;52.794;6.892;2022-08-19T08:16:02;19.30;99.90
53282;DHT22;39167;52.794;6.892;2022-08-19T08:18:28;19.40;99.90
53282;DHT22;39167;52.794;6.892;2022-08-19T08:20:57;19.50;99.90
53282;DHT22;39167;52.794;6.892;2022-08-19T08:23:23;19.70;99.90
53282;DHT22;39167;52.794;6.892;2022-08-19T08:25:55;19.80;99.90
53282;DHT22;39167;52.794;6.892;2022-08-19T08:28:22;19.80;99.90
53282;DHT22;39167;52.794;6.892;2022-08-19T08:30:48;20.00;99.90
53282;DHT22;39167;52.794;6.892;2022-08-19T08:33:23;20.10;99.90
53282;DHT22;39167;52.794;6.892;2022-08-19T08:35:49;20.30;99.90
53282;DHT22;39167;52.794;6.892;2022-08-19T08:38:15;20.40;99.90
53282;DHT22;39167;52.794;6.892;2022-08-19T08:40:50;20.50;99.90
53282;DHT22;39167;52.794;6.892;2022-08-19T08:43:29;20.60;99.90
53282;DHT22;39167;52.794;6.892;2022-08-19T08:46:06;20.70;99.90
53282;DHT22;39167;52.794;6.892;2022-08-19T08:48:53;20.80;99.90
53282;DHT22;39167;52.794;6.892;2022-08-19T08:51:37;20.90;99.90
53282;DHT22;39167;52.794;6.892;2022-08-19T08:54:10;21.00;99.90
53282;DHT22;39167;52.794;6.892;2022-08-19T08:56:38;21.10;99.90
53282;DHT22;39167;52.794;6.892;2022-08-19T08:59:20;21.20;99.90
53282;DHT22;39167;52.794;6.892;2022-08-19T09:01:47;21.30;99.90
53282;DHT22;39167;52.794;6.892;2022-08-19T09:04:13;21.40;99.90
53282;DHT22;39167;52.794;6.892;2022-08-19T09:12:45;21.80;99.90
53282;DHT22;39167;52.794;6.892;2022-08-19T09:15:13;22.00;99.90
53282;DHT22;39167;52.794;6.892;2022-08-19T09:17:39;22.20;99.90
53282;DHT22;39167;52.794;6.892;2022-08-19T09:22:37;22.40;99.90
53282;DHT22;39167;52.794;6.892;2022-08-19T09:25:08;22.40;99.90
53282;DHT22;39167;52.794;6.892;2022-08-19T09:27:36;22.50;99.90
53282;DHT22;39167;52.794;6.892;2022-08-19T09:30:04;22.70;99.90
53282;DHT22;39167;52.794;6.892;2022-08-19T09:32:30;22.70;99.90
53282;DHT22;39167;52.794;6.892;2022-08-19T09:34:56;22.80;99.90
53282;DHT22;39167;52.794;6.892;2022-08-19T09:37:24;22.90;99.90
53282;DHT22;39167;52.794;6.892;2022-08-19T09:39:50;23.00;99.90
53282;DHT22;39167;52.794;6.892;2022-08-19T09:42:16;23.10;99.90
53282;DHT22;39167;52.794;6.892;2022-08-19T09:44:43;23.10;99.90
53282;DHT22;39167;52.794;6.892;2022-08-19T09:47:11;23.20;99.90
53282;DHT22;39167;52.794;6.892;2022-08-19T09:49:37;23.30;99.90
53282;DHT22;39167;52.794;6.892;2022-08-19T09:52:08;23.30;99.90
53282;DHT22;39167;52.794;6.892;2022-08-19T09:54:35;23.50;99.90
53282;DHT22;39167;52.794;6.892;2022-08-19T09:57:01;23.60;99.90
53282;DHT22;39167;52.794;6.892;2022-08-19T09:59:27;23.60;99.90
53282;DHT22;39167;52.794;6.892;2022-08-19T10:01:53;23.60;99.90
53282;DHT22;39167;52.794;6.892;2022-08-19T10:04:19;23.80;99.90
53282;DHT22;39167;52.794;6.892;2022-08-19T10:06:47;23.80;99.90
53282;DHT22;39167;52.794;6.892;2022-08-19T10:09:15;23.90;99.90
53282;DHT22;39167;52.794;6.892;2022-08-19T10:11:43;24.00;99.90
53282;DHT22;39167;52.794;6.892;2022-08-19T10:14:11;24.10;99.90
53282;DHT22;39167;52.794;6.892;2022-08-19T10:16:37;24.30;99.90
53282;DHT22;39167;52.794;6.892;2022-08-19T10:19:04;24.30;99.90
53282;DHT22;39167;52.794;6.892;2022-08-19T10:21:31;24.30;99.90
53282;DHT22;39167;52.794;6.892;2022-08-19T10:23:59;24.30;99.90
53282;DHT22;39167;52.794;6.892;2022-08-19T10:26:29;24.40;99.90
53282;DHT22;39167;52.794;6.892;2022-08-19T10:28:56;24.50;99.90
53282;DHT22;39167;52.794;6.892;2022-08-19T10:31:24;24.50;99.90
53282;DHT22;39167;52.794;6.892;2022-08-19T10:33:51;24.60;99.90
53282;DHT22;39167;52.794;6.892;2022-08-19T10:36:25;24.60;99.90
53282;DHT22;39167;52.794;6.892;2022-08-19T10:38:53;24.70;99.90
53282;DHT22;39167;52.794;6.892;2022-08-19T10:41:23;24.70;99.90
53282;DHT22;39167;52.794;6.892;2022-08-19T10:43:54;24.90;99.90
53282;DHT22;39167;52.794;6.892;2022-08-19T10:46:21;25.00;99.90
53282;DHT22;39167;52.794;6.892;2022-08-19T10:48:48;25.00;99.90
53282;DHT22;39167;52.794;6.892;2022-08-19T10:51:14;25.10;99.90
53282;DHT22;39167;52.794;6.892;2022-08-19T10:53:59;25.20;99.90
53282;DHT22;39167;52.794;6.892;2022-08-19T10:56:26;25.30;99.90
53282;DHT22;39167;52.794;6.892;2022-08-19T10:59:12;25.30;99.90
53282;DHT22;39167;52.794;6.892;2022-08-19T11:01:40;25.50;99.90
53282;DHT22;39167;52.794;6.892;2022-08-19T11:04:06;25.50;99.90
53282;DHT22;39167;52.794;6.892;2022-08-19T11:06:35;25.40;99.90
53282;DHT22;39167;52.794;6.892;2022-08-19T11:09:02;25.50;99.90
53282;DHT22;39167;52.794;6.892;2022-08-19T11:11:28;25.50;99.90
53282;DHT22;39167;52.794;6.892;2022-08-19T11:13:54;25.60;99.90
53282;DHT22;39167;52.794;6.892;2022-08-19T11:16:23;25.70;99.90
53282;DHT22;39167;52.794;6.892;2022-08-19T11:18:57;25.80;99.90
53282;DHT22;39167;52.794;6.892;2022-08-19T11:21:36;25.90;99.90
53282;DHT22;39167;52.794;6.892;2022-08-19T11:24:11;26.00;99.90
53282;DHT22;39167;52.794;6.892;2022-08-19T11:26:38;26.00;99.90
53282;DHT22;39167;52.794;6.892;2022-08-19T11:29:06;26.10;99.90
53282;DHT22;39167;52.794;6.892;2022-08-19T11:31:34;26.20;99.90
53282;DHT22;39167;52.794;6.892;2022-08-19T11:34:07;26.10;99.90
53282;DHT22;39167;52.794;6.892;2022-08-19T11:36:34;26.10;99.90
53282;DHT22;39167;52.794;6.892;2022-08-19T11:39:07;26.20;99.90
53282;DHT22;39167;52.794;6.892;2022-08-19T11:41:33;26.10;99.90
53282;DHT22;39167;52.794;6.892;2022-08-19T11:43:59;26.10;99.90
53282;DHT22;39167;52.794;6.892;2022-08-19T11:46:26;26.20;99.90
53282;DHT22;39167;52.794;6.892;2022-08-19T11:48:55;26.10;99.90
53282;DHT22;39167;52.794;6.892;2022-08-19T11:51:23;26.20;99.90
53282;DHT22;39167;52.794;6.892;2022-08-19T11:53:51;26.10;99.90
53282;DHT22;39167;52.794;6.892;2022-08-19T11:56:17;26.00;99.90
53282;DHT22;39167;52.794;6.892;2022-08-19T11:58:44;26.00;99.90
53282;DHT22;39167;52.794;6.892;2022-08-19T12:01:11;25.90;99.90
53282;DHT22;39167;52.794;6.892;2022-08-19T12:03:37;25.70;99.90
53282;DHT22;39167;52.794;6.892;2022-08-19T12:06:05;25.60;99.90
53282;DHT22;39167;52.794;6.892;2022-08-19T12:08:31;25.60;99.90
53282;DHT22;39167;52.794;6.892;2022-08-19T12:10:57;25.60;99.90
53282;DHT22;39167;52.794;6.892;2022-08-19T12:13:23;25.70;99.90
53282;DHT22;39167;52.794;6.892;2022-08-19T12:15:49;25.80;99.90
53282;DHT22;39167;52.794;6.892;2022-08-19T12:18:15;25.80;99.90
53282;DHT22;39167;52.794;6.892;2022-08-19T12:20:42;25.80;99.90
53282;DHT22;39167;52.794;6.892;2022-08-19T12:23:09;25.80;99.90
53282;DHT22;39167;52.794;6.892;2022-08-19T12:25:36;25.80;99.90
53282;DHT22;39167;52.794;6.892;2022-08-19T12:28:02;25.70;99.90
53282;DHT22;39167;52.794;6.892;2022-08-19T12:30:28;25.70;99.90
53282;DHT22;39167;52.794;6.892;2022-08-19T12:32:54;25.60;99.90
53282;DHT22;39167;52.794;6.892;2022-08-19T12:35:19;25.50;99.90
53282;DHT22;39167;52.794;6.892;2022-08-19T12:37:47;25.40;99.90
53282;DHT22;39167;52.794;6.892;2022-08-19T12:40:13;25.40;99.90
53282;DHT22;39167;52.794;6.892;2022-08-19T12:42:40;25.40;99.90
53282;DHT22;39167;52.794;6.892;2022-08-19T12:45:13;25.40;99.90
53282;DHT22;39167;52.794;6.892;2022-08-19T12:47:39;25.30;99.90
53282;DHT22;39167;52.794;6.892;2022-08-19T12:50:05;25.30;99.90
53282;DHT22;39167;52.794;6.892;2022-08-19T12:52:35;25.30;99.90
53282;DHT22;39167;52.794;6.892;2022-08-19T12:55:07;25.40;99.90
53282;DHT22;39167;52.794;6.892;2022-08-19T12:57:34;25.60;99.90
53282;DHT22;39167;52.794;6.892;2022-08-19T13:00:10;25.70;99.90
53282;DHT22;39167;52.794;6.892;2022-08-19T13:02:40;25.90;99.90
53282;DHT22;39167;52.794;6.892;2022-08-19T13:05:11;26.10;99.90
53282;DHT22;39167;52.794;6.892;2022-08-19T13:07:39;26.10;99.90
53282;DHT22;39167;52.794;6.892;2022-08-19T13:10:10;26.00;99.90
53282;DHT22;39167;52.794;6.892;2022-08-19T13:12:37;26.00;99.90
53282;DHT22;39167;52.794;6.892;2022-08-19T13:15:04;26.00;99.90
53282;DHT22;39167;52.794;6.892;2022-08-19T13:17:30;25.90;99.90
53282;DHT22;39167;52.794;6.892;2022-08-19T13:19:56;25.90;99.90
53282;DHT22;39167;52.794;6.892;2022-08-19T13:22:21;25.90;99.90
53282;DHT22;39167;52.794;6.892;2022-08-19T13:24:47;25.90;99.90
53282;DHT22;39167;52.794;6.892;2022-08-19T13:27:14;25.90;99.90
53282;DHT22;39167;52.794;6.892;2022-08-19T13:29:41;26.00;99.90
53282;DHT22;39167;52.794;6.892;2022-08-19T13:32:25;26.00;99.90
53282;DHT22;39167;52.794;6.892;2022-08-19T13:35:10;26.20;99.90
53282;DHT22;39167;52.794;6.892;2022-08-19T13:37:36;26.20;99.90
53282;DHT22;39167;52.794;6.892;2022-08-19T13:40:21;26.30;99.90
53282;DHT22;39167;52.794;6.892;2022-08-19T13:42:50;26.40;99.90
53282;DHT22;39167;52.794;6.892;2022-08-19T13:45:22;26.40;99.90
53282;DHT22;39167;52.794;6.892;2022-08-19T13:47:49;26.50;99.90
53282;DHT22;39167;52.794;6.892;2022-08-19T13:50:18;26.50;99.90
53282;DHT22;39167;52.794;6.892;2022-08-19T13:52:44;26.40;99.90
53282;DHT22;39167;52.794;6.892;2022-08-19T13:55:11;26.40;99.90
53282;DHT22;39167;52.794;6.892;2022-08-19T13:57:38;26.40;99.90
53282;DHT22;39167;52.794;6.892;2022-08-19T14:00:14;26.40;99.90
53282;DHT22;39167;52.794;6.892;2022-08-19T14:02:41;26.40;99.90
53282;DHT22;39167;52.794;6.892;2022-08-19T14:05:09;26.30;99.90
53282;DHT22;39167;52.794;6.892;2022-08-19T14:07:35;26.40;99.90
53282;DHT22;39167;52.794;6.892;2022-08-19T14:10:03;26.30;99.90
53282;DHT22;39167;52.794;6.892;2022-08-19T14:12:29;26.40;99.90
53282;DHT22;39167;52.794;6.892;2022-08-19T14:14:57;26.30;99.90
53282;DHT22;39167;52.794;6.892;2022-08-19T14:17:23;26.30;99.90
53282;DHT22;39167;52.794;6.892;2022-08-19T14:19:57;26.30;99.90
53282;DHT22;39167;52.794;6.892;2022-08-19T14:22:23;26.40;99.90
53282;DHT22;39167;52.794;6.892;2022-08-19T14:24:48;26.40;99.90
53282;DHT22;39167;52.794;6.892;2022-08-19T14:27:15;26.40;99.90
53282;DHT22;39167;52.794;6.892;2022-08-19T14:29:42;26.40;99.90
53282;DHT22;39167;52.794;6.892;2022-08-19T14:32:07;26.40;99.90
53282;DHT22;39167;52.794;6.892;2022-08-19T14:34:33;26.40;99.90
53282;DHT22;39167;52.794;6.892;2022-08-19T14:37:00;26.40;99.90
53282;DHT22;39167;52.794;6.892;2022-08-19T14:39:25;26.40;99.90
53282;DHT22;39167;52.794;6.892;2022-08-19T14:41:51;26.50;99.90
53282;DHT22;39167;52.794;6.892;2022-08-19T14:44:17;26.50;99.90
53282;DHT22;39167;52.794;6.892;2022-08-19T14:46:42;26.40;99.90
53282;DHT22;39167;52.794;6.892;2022-08-19T14:49:10;26.50;99.90
53282;DHT22;39167;52.794;6.892;2022-08-19T14:51:36;26.60;99.90
53282;DHT22;39167;52.794;6.892;2022-08-19T14:54:02;26.70;99.90
53282;DHT22;39167;52.794;6.892;2022-08-19T14:56:28;26.80;99.90
53282;DHT22;39167;52.794;6.892;2022-08-19T14:58:54;26.80;99.90
53282;DHT22;39167;52.794;6.892;2022-08-19T15:01:22;26.70;99.90
53282;DHT22;39167;52.794;6.892;2022-08-19T15:03:48;26.70;99.90
53282;DHT22;39167;52.794;6.892;2022-08-19T15:06:15;26.60;99.90
53282;DHT22;39167;52.794;6.892;2022-08-19T15:08:42;26.50;99.90
53282;DHT22;39167;52.794;6.892;2022-08-19T15:11:14;26.40;99.90
53282;DHT22;39167;52.794;6.892;2022-08-19T15:13:41;26.40;99.90
53282;DHT22;39167;52.794;6.892;2022-08-19T15:16:07;26.30;99.90
53282;DHT22;39167;52.794;6.892;2022-08-19T15:18:33;26.20;99.90
53282;DHT22;39167;52.794;6.892;2022-08-19T15:21:01;26.00;99.90
53282;DHT22;39167;52.794;6.892;2022-08-19T15:23:27;25.90;99.90
53282;DHT22;39167;52.794;6.892;2022-08-19T15:25:53;25.90;99.90
53282;DHT22;39167;52.794;6.892;2022-08-19T15:28:21;25.90;99.90
53282;DHT22;39167;52.794;6.892;2022-08-19T15:30:47;25.80;99.90
53282;DHT22;39167;52.794;6.892;2022-08-19T15:33:13;25.70;99.90
53282;DHT22;39167;52.794;6.892;2022-08-19T15:35:43;25.70;99.90
53282;DHT22;39167;52.794;6.892;2022-08-19T15:38:08;25.60;99.90
53282;DHT22;39167;52.794;6.892;2022-08-19T15:40:35;25.60;99.90
53282;DHT22;39167;52.794;6.892;2022-08-19T15:43:01;25.60;99.90
53282;DHT22;39167;52.794;6.892;2022-08-19T15:45:26;25.50;99.90
53282;DHT22;39167;52.794;6.892;2022-08-19T15:47:58;25.40;99.90